Conyers, GA (30012)

12:29 PM EST on March 03, 2015 (GMT -0500)
Zingara Rd | Change Station
CLOSE
Current Station
Personal Weather Station
Location: Conyers, GA
Elevation: 817 ft
Nearby Weather Stations

Elev 817 ft 33.73 °N, 83.99 °W | Updated 7 seconds ago

Mostly Cloudy
Mostly Cloudy
50.5 °F
Feels Like 50.5 °F
N
1.2
Wind Variable Wind from East
Gusts 0.0 mph

Today
High -- | Low -- °F
--% Chance of Precip.
Yesterday
High -- | Low -- °F
Precip. -- in
7:02 AM 6:34 PM
Waxing Gibbous, 96% visible
Pressure 30.23 in
Visibility 3.0 miles
Clouds Overcast 300 ft
Dew Point 50 °F
Humidity 99%
Rainfall 0.19 in
Snow Depth Not available.
UV 2 out of 12
Pollen 1.20 out of 12
Air Quality Not available.
Flu Activity Not available.
METAR KCVC 031715Z AUTO 04006KT 3SM -RA OVC003 11/10 A3023 RMK AO2

More Conditions Fewer Conditions

Pressure 30.23 in
Visibility 3.0 miles
Clouds Overcast 300 ft
Dew Point 50 °F
Humidity 99%
Rainfall 0.19 in
Snow Depth Not available.
UV 2 out of 12
Pollen 1.20 out of 12
Air Quality Not available.
Flu Activity Not available.
METAR KCVC 031715Z AUTO 04006KT 3SM -RA OVC003 11/10 A3023 RMK AO2

More Conditions Fewer Conditions

10-Day Weather Forecast

Almanac

Astronomy

Mar. 03, 2015 Rise Set
Actual Time
Civil Twilight
Nautical Twilight
Astronomical Twilight
Moon
Length of Visible Light
Length of Day
Tomorrow will be .
, % of the Moon is Illuminated

Today's Extremes

State Highs State Lows

Community

WunderPhotos

Upload Photos

1,802,174 photos uploaded!

WunderBlogs® & News

Nearby

Air Quality

  Air Quality AQ Index Pollutant
Not available.

Snow Depth

Station Depth Elevation

Earthquake Activity

City Distance Mag. Time & Date
Minimum magnitude displayed is 2.5.

Coastal Water Temperatures

Place Temperature

Nearby Weather Stations